sensor_id;sensor_type;location;lat;lon;timestamp;temperature;humidity
18733;DHT22;9495;51.210;2.934;2024-02-23T00:01:59;11.00;99.90
18733;DHT22;9495;51.210;2.934;2024-02-23T00:04:28;9.90;99.90
18733;DHT22;9495;51.210;2.934;2024-02-23T00:06:58;9.80;99.90
18733;DHT22;9495;51.210;2.934;2024-02-23T00:09:26;9.80;99.90
18733;DHT22;9495;51.210;2.934;2024-02-23T00:11:55;9.80;99.90
18733;DHT22;9495;51.210;2.934;2024-02-23T00:14:23;10.40;99.90
18733;DHT22;9495;51.210;2.934;2024-02-23T00:16:52;10.50;99.90
18733;DHT22;9495;51.210;2.934;2024-02-23T00:19:21;10.00;99.90
18733;DHT22;9495;51.210;2.934;2024-02-23T00:21:51;10.50;99.90
18733;DHT22;9495;51.210;2.934;2024-02-23T00:24:21;11.60;99.90
18733;DHT22;9495;51.210;2.934;2024-02-23T00:26:49;11.90;99.90
18733;DHT22;9495;51.210;2.934;2024-02-23T00:29:19;11.40;99.90
18733;DHT22;9495;51.210;2.934;2024-02-23T00:31:49;12.00;99.90
18733;DHT22;9495;51.210;2.934;2024-02-23T00:34:18;10.80;99.90
18733;DHT22;9495;51.210;2.934;2024-02-23T00:36:46;9.90;99.90
18733;DHT22;9495;51.210;2.934;2024-02-23T00:39:15;9.30;99.90
18733;DHT22;9495;51.210;2.934;2024-02-23T00:41:45;9.00;99.90
18733;DHT22;9495;51.210;2.934;2024-02-23T00:44:14;9.20;99.90
18733;DHT22;9495;51.210;2.934;2024-02-23T00:46:42;9.50;99.90
18733;DHT22;9495;51.210;2.934;2024-02-23T00:49:11;10.00;99.90
18733;DHT22;9495;51.210;2.934;2024-02-23T00:51:40;10.50;99.90
18733;DHT22;9495;51.210;2.934;2024-02-23T00:54:08;10.50;99.90
18733;DHT22;9495;51.210;2.934;2024-02-23T00:56:37;10.40;99.90
18733;DHT22;9495;51.210;2.934;2024-02-23T00:59:18;10.20;99.90
18733;DHT22;9495;51.210;2.934;2024-02-23T01:01:48;11.70;99.90
18733;DHT22;9495;51.210;2.934;2024-02-23T01:04:17;11.90;99.90
18733;DHT22;9495;51.210;2.934;2024-02-23T01:06:45;12.20;99.90
18733;DHT22;9495;51.210;2.934;2024-02-23T01:09:14;12.30;99.90
18733;DHT22;9495;51.210;2.934;2024-02-23T01:11:48;11.60;99.90
18733;DHT22;9495;51.210;2.934;2024-02-23T01:14:18;11.50;99.90
18733;DHT22;9495;51.210;2.934;2024-02-23T01:16:46;11.50;99.90
18733;DHT22;9495;51.210;2.934;2024-02-23T01:19:15;11.80;99.90
18733;DHT22;9495;51.210;2.934;2024-02-23T01:21:43;12.40;99.90
18733;DHT22;9495;51.210;2.934;2024-02-23T01:24:12;12.10;99.90
18733;DHT22;9495;51.210;2.934;2024-02-23T01:26:40;11.30;99.90
18733;DHT22;9495;51.210;2.934;2024-02-23T01:29:09;10.50;99.90
18733;DHT22;9495;51.210;2.934;2024-02-23T01:31:39;10.60;99.90
18733;DHT22;9495;51.210;2.934;2024-02-23T01:34:08;11.10;99.90
18733;DHT22;9495;51.210;2.934;2024-02-23T01:36:36;11.10;99.90
18733;DHT22;9495;51.210;2.934;2024-02-23T01:39:06;10.20;99.90
18733;DHT22;9495;51.210;2.934;2024-02-23T01:41:35;10.50;99.90
18733;DHT22;9495;51.210;2.934;2024-02-23T01:44:04;10.30;99.90
18733;DHT22;9495;51.210;2.934;2024-02-23T01:46:33;9.90;99.90
18733;DHT22;9495;51.210;2.934;2024-02-23T01:49:03;10.70;99.90
18733;DHT22;9495;51.210;2.934;2024-02-23T01:51:32;10.40;99.90
18733;DHT22;9495;51.210;2.934;2024-02-23T01:54:01;10.40;99.90
18733;DHT22;9495;51.210;2.934;2024-02-23T01:56:31;9.80;99.90
18733;DHT22;9495;51.210;2.934;2024-02-23T01:59:00;9.70;99.90
18733;DHT22;9495;51.210;2.934;2024-02-23T02:01:30;9.70;99.90
18733;DHT22;9495;51.210;2.934;2024-02-23T02:03:59;11.00;99.90
18733;DHT22;9495;51.210;2.934;2024-02-23T02:06:29;10.50;99.90
18733;DHT22;9495;51.210;2.934;2024-02-23T02:08:58;10.90;99.90
18733;DHT22;9495;51.210;2.934;2024-02-23T02:11:26;10.50;99.90
18733;DHT22;9495;51.210;2.934;2024-02-23T02:13:55;10.60;99.90
18733;DHT22;9495;51.210;2.934;2024-02-23T02:16:23;11.50;99.90
18733;DHT22;9495;51.210;2.934;2024-02-23T02:18:52;12.20;99.90
18733;DHT22;9495;51.210;2.934;2024-02-23T02:21:20;12.00;99.90
18733;DHT22;9495;51.210;2.934;2024-02-23T02:23:53;12.00;99.90
18733;DHT22;9495;51.210;2.934;2024-02-23T02:26:22;12.30;99.90
18733;DHT22;9495;51.210;2.934;2024-02-23T02:28:50;13.10;99.90
18733;DHT22;9495;51.210;2.934;2024-02-23T02:31:19;13.50;99.90
18733;DHT22;9495;51.210;2.934;2024-02-23T02:33:48;13.20;99.90
18733;DHT22;9495;51.210;2.934;2024-02-23T02:36:16;13.10;99.90
18733;DHT22;9495;51.210;2.934;2024-02-23T02:38:45;13.70;99.90
18733;DHT22;9495;51.210;2.934;2024-02-23T02:41:16;14.40;99.90
18733;DHT22;9495;51.210;2.934;2024-02-23T02:43:45;14.80;99.90
18733;DHT22;9495;51.210;2.934;2024-02-23T02:46:14;15.20;99.90
18733;DHT22;9495;51.210;2.934;2024-02-23T02:48:42;15.10;99.90
18733;DHT22;9495;51.210;2.934;2024-02-23T02:51:11;14.80;99.90
18733;DHT22;9495;51.210;2.934;2024-02-23T02:53:40;15.00;99.90
18733;DHT22;9495;51.210;2.934;2024-02-23T02:56:08;14.30;99.90
18733;DHT22;9495;51.210;2.934;2024-02-23T02:58:38;14.50;99.90
18733;DHT22;9495;51.210;2.934;2024-02-23T03:01:06;15.00;99.90
18733;DHT22;9495;51.210;2.934;2024-02-23T03:03:35;14.80;99.90
18733;DHT22;9495;51.210;2.934;2024-02-23T03:06:04;14.20;99.90
18733;DHT22;9495;51.210;2.934;2024-02-23T03:08:34;13.60;99.90
18733;DHT22;9495;51.210;2.934;2024-02-23T03:11:03;13.70;99.90
18733;DHT22;9495;51.210;2.934;2024-02-23T03:13:31;12.70;99.90
18733;DHT22;9495;51.210;2.934;2024-02-23T03:16:01;12.90;99.90
18733;DHT22;9495;51.210;2.934;2024-02-23T03:18:30;13.10;99.90
18733;DHT22;9495;51.210;2.934;2024-02-23T03:20:58;12.80;99.90
18733;DHT22;9495;51.210;2.934;2024-02-23T03:23:26;12.50;99.90
18733;DHT22;9495;51.210;2.934;2024-02-23T03:25:55;13.50;99.90
18733;DHT22;9495;51.210;2.934;2024-02-23T03:28:24;13.80;99.90
18733;DHT22;9495;51.210;2.934;2024-02-23T03:30:53;13.70;99.90
18733;DHT22;9495;51.210;2.934;2024-02-23T03:33:23;13.60;99.90
18733;DHT22;9495;51.210;2.934;2024-02-23T03:35:51;13.80;99.90
18733;DHT22;9495;51.210;2.934;2024-02-23T03:38:20;13.20;99.90
18733;DHT22;9495;51.210;2.934;2024-02-23T03:40:48;13.00;99.90
18733;DHT22;9495;51.210;2.934;2024-02-23T03:43:17;12.90;99.90
18733;DHT22;9495;51.210;2.934;2024-02-23T03:45:45;12.70;99.90
18733;DHT22;9495;51.210;2.934;2024-02-23T03:48:14;12.90;99.90
18733;DHT22;9495;51.210;2.934;2024-02-23T03:50:44;13.00;99.90
18733;DHT22;9495;51.210;2.934;2024-02-23T03:53:12;12.60;99.90
18733;DHT22;9495;51.210;2.934;2024-02-23T03:55:41;13.70;99.90
18733;DHT22;9495;51.210;2.934;2024-02-23T03:58:09;13.10;99.90
18733;DHT22;9495;51.210;2.934;2024-02-23T04:00:38;13.30;99.90
18733;DHT22;9495;51.210;2.934;2024-02-23T04:03:06;12.70;99.90
18733;DHT22;9495;51.210;2.934;2024-02-23T04:05:35;12.70;99.90
18733;DHT22;9495;51.210;2.934;2024-02-23T04:08:05;12.00;99.90
18733;DHT22;9495;51.210;2.934;2024-02-23T04:10:35;12.10;99.90
18733;DHT22;9495;51.210;2.934;2024-02-23T04:13:04;13.00;99.90
18733;DHT22;9495;51.210;2.934;2024-02-23T04:15:32;13.50;99.90
18733;DHT22;9495;51.210;2.934;2024-02-23T04:18:00;13.40;99.90
18733;DHT22;9495;51.210;2.934;2024-02-23T04:20:29;13.40;99.90
18733;DHT22;9495;51.210;2.934;2024-02-23T04:22:58;13.70;99.90
18733;DHT22;9495;51.210;2.934;2024-02-23T04:25:28;13.30;99.90
18733;DHT22;9495;51.210;2.934;2024-02-23T04:27:56;12.70;99.90
18733;DHT22;9495;51.210;2.934;2024-02-23T04:30:24;13.10;99.90
18733;DHT22;9495;51.210;2.934;2024-02-23T04:32:53;12.50;99.90
18733;DHT22;9495;51.210;2.934;2024-02-23T04:35:21;12.40;99.90
18733;DHT22;9495;51.210;2.934;2024-02-23T04:37:52;12.80;99.90
18733;DHT22;9495;51.210;2.934;2024-02-23T04:40:20;13.10;99.90
18733;DHT22;9495;51.210;2.934;2024-02-23T04:42:50;13.10;99.90
18733;DHT22;9495;51.210;2.934;2024-02-23T04:45:19;12.80;99.90
18733;DHT22;9495;51.210;2.934;2024-02-23T04:47:47;13.20;99.90
18733;DHT22;9495;51.210;2.934;2024-02-23T04:50:16;13.40;99.90
18733;DHT22;9495;51.210;2.934;2024-02-23T04:52:44;13.20;99.90
18733;DHT22;9495;51.210;2.934;2024-02-23T04:55:13;13.00;99.90
18733;DHT22;9495;51.210;2.934;2024-02-23T04:57:41;12.30;99.90
18733;DHT22;9495;51.210;2.934;2024-02-23T05:00:12;12.50;99.90
18733;DHT22;9495;51.210;2.934;2024-02-23T05:02:41;12.10;99.90
18733;DHT22;9495;51.210;2.934;2024-02-23T05:05:09;12.70;99.90
18733;DHT22;9495;51.210;2.934;2024-02-23T05:07:38;11.90;99.90
18733;DHT22;9495;51.210;2.934;2024-02-23T05:10:07;12.50;99.90
18733;DHT22;9495;51.210;2.934;2024-02-23T05:12:35;12.80;99.90
18733;DHT22;9495;51.210;2.934;2024-02-23T05:15:04;13.80;99.90
18733;DHT22;9495;51.210;2.934;2024-02-23T05:17:34;13.80;99.90
18733;DHT22;9495;51.210;2.934;2024-02-23T05:20:03;13.10;99.90
18733;DHT22;9495;51.210;2.934;2024-02-23T05:22:35;13.20;99.90
18733;DHT22;9495;51.210;2.934;2024-02-23T05:25:04;13.70;99.90
18733;DHT22;9495;51.210;2.934;2024-02-23T05:27:33;14.20;99.90
18733;DHT22;9495;51.210;2.934;2024-02-23T05:30:02;14.40;99.90
18733;DHT22;9495;51.210;2.934;2024-02-23T05:32:31;14.40;99.90
18733;DHT22;9495;51.210;2.934;2024-02-23T05:35:02;14.50;99.90
18733;DHT22;9495;51.210;2.934;2024-02-23T05:37:31;13.80;99.90
18733;DHT22;9495;51.210;2.934;2024-02-23T05:39:59;14.20;99.90
18733;DHT22;9495;51.210;2.934;2024-02-23T05:42:31;13.80;99.90
18733;DHT22;9495;51.210;2.934;2024-02-23T05:45:02;13.90;99.90
18733;DHT22;9495;51.210;2.934;2024-02-23T05:47:32;13.30;99.90
18733;DHT22;9495;51.210;2.934;2024-02-23T05:50:01;13.10;99.90
18733;DHT22;9495;51.210;2.934;2024-02-23T05:52:31;13.30;99.90
18733;DHT22;9495;51.210;2.934;2024-02-23T05:54:59;13.70;99.90
18733;DHT22;9495;51.210;2.934;2024-02-23T05:57:28;14.30;99.90
18733;DHT22;9495;51.210;2.934;2024-02-23T05:59:57;13.60;99.90
18733;DHT22;9495;51.210;2.934;2024-02-23T06:02:25;13.90;99.90
18733;DHT22;9495;51.210;2.934;2024-02-23T06:04:54;13.90;99.90
18733;DHT22;9495;51.210;2.934;2024-02-23T06:07:24;14.00;99.90
18733;DHT22;9495;51.210;2.934;2024-02-23T06:09:56;14.10;99.90
18733;DHT22;9495;51.210;2.934;2024-02-23T06:12:25;13.90;99.90
18733;DHT22;9495;51.210;2.934;2024-02-23T06:14:54;14.20;99.90
18733;DHT22;9495;51.210;2.934;2024-02-23T06:17:24;13.70;99.90
18733;DHT22;9495;51.210;2.934;2024-02-23T06:19:52;13.00;99.90
18733;DHT22;9495;51.210;2.934;2024-02-23T06:22:25;15.30;99.90
18733;DHT22;9495;51.210;2.934;2024-02-23T06:24:53;14.60;99.90
18733;DHT22;9495;51.210;2.934;2024-02-23T06:27:22;14.10;99.90
18733;DHT22;9495;51.210;2.934;2024-02-23T06:29:52;14.70;99.90
18733;DHT22;9495;51.210;2.934;2024-02-23T06:32:21;14.80;99.90
18733;DHT22;9495;51.210;2.934;2024-02-23T06:34:49;14.50;99.90
18733;DHT22;9495;51.210;2.934;2024-02-23T06:37:18;14.80;99.90
18733;DHT22;9495;51.210;2.934;2024-02-23T06:39:47;13.80;99.90
18733;DHT22;9495;51.210;2.934;2024-02-23T06:42:21;14.30;99.90
18733;DHT22;9495;51.210;2.934;2024-02-23T06:44:49;15.00;99.90
18733;DHT22;9495;51.210;2.934;2024-02-23T06:47:18;14.10;99.90
18733;DHT22;9495;51.210;2.934;2024-02-23T06:49:46;14.60;99.90
18733;DHT22;9495;51.210;2.934;2024-02-23T06:52:15;14.30;99.90
18733;DHT22;9495;51.210;2.934;2024-02-23T06:54:45;14.90;99.90
18733;DHT22;9495;51.210;2.934;2024-02-23T06:57:15;15.00;99.90
18733;DHT22;9495;51.210;2.934;2024-02-23T06:59:43;15.00;99.90
18733;DHT22;9495;51.210;2.934;2024-02-23T07:02:12;15.80;99.90
18733;DHT22;9495;51.210;2.934;2024-02-23T07:04:40;15.30;99.90
18733;DHT22;9495;51.210;2.934;2024-02-23T07:07:09;15.00;99.90
18733;DHT22;9495;51.210;2.934;2024-02-23T07:09:39;15.00;99.90
18733;DHT22;9495;51.210;2.934;2024-02-23T07:12:07;14.10;99.90
18733;DHT22;9495;51.210;2.934;2024-02-23T07:14:40;13.50;99.90
18733;DHT22;9495;51.210;2.934;2024-02-23T07:17:08;14.40;99.90
18733;DHT22;9495;51.210;2.934;2024-02-23T07:19:38;14.10;99.90
18733;DHT22;9495;51.210;2.934;2024-02-23T07:22:07;14.30;99.90
18733;DHT22;9495;51.210;2.934;2024-02-23T07:24:39;14.70;99.90
18733;DHT22;9495;51.210;2.934;2024-02-23T07:27:08;14.80;99.90
18733;DHT22;9495;51.210;2.934;2024-02-23T07:29:37;14.50;99.90
18733;DHT22;9495;51.210;2.934;2024-02-23T07:32:07;14.50;99.90
18733;DHT22;9495;51.210;2.934;2024-02-23T07:34:36;14.60;99.90
18733;DHT22;9495;51.210;2.934;2024-02-23T07:37:04;14.60;99.90
18733;DHT22;9495;51.210;2.934;2024-02-23T07:39:33;13.90;99.90
18733;DHT22;9495;51.210;2.934;2024-02-23T07:42:01;14.40;99.90
18733;DHT22;9495;51.210;2.934;2024-02-23T07:44:30;14.70;99.90
18733;DHT22;9495;51.210;2.934;2024-02-23T07:46:58;14.50;99.90
18733;DHT22;9495;51.210;2.934;2024-02-23T07:49:28;13.90;99.90
18733;DHT22;9495;51.210;2.934;2024-02-23T07:51:57;14.80;99.90
18733;DHT22;9495;51.210;2.934;2024-02-23T07:54:26;14.70;99.90
18733;DHT22;9495;51.210;2.934;2024-02-23T07:56:54;14.80;99.90
18733;DHT22;9495;51.210;2.934;2024-02-23T07:59:24;14.60;99.90
18733;DHT22;9495;51.210;2.934;2024-02-23T08:01:53;15.40;99.90
18733;DHT22;9495;51.210;2.934;2024-02-23T08:04:22;15.20;99.90
18733;DHT22;9495;51.210;2.934;2024-02-23T08:06:52;15.00;99.90
18733;DHT22;9495;51.210;2.934;2024-02-23T08:09:20;14.50;99.90
18733;DHT22;9495;51.210;2.934;2024-02-23T08:11:51;15.20;99.90
18733;DHT22;9495;51.210;2.934;2024-02-23T08:14:20;14.80;99.90
18733;DHT22;9495;51.210;2.934;2024-02-23T08:16:48;14.90;99.90
18733;DHT22;9495;51.210;2.934;2024-02-23T08:19:17;14.70;99.90
18733;DHT22;9495;51.210;2.934;2024-02-23T08:21:45;14.80;99.90
18733;DHT22;9495;51.210;2.934;2024-02-23T08:24:15;14.70;99.90
18733;DHT22;9495;51.210;2.934;2024-02-23T08:26:44;15.50;99.90
18733;DHT22;9495;51.210;2.934;2024-02-23T08:29:13;15.30;99.90
18733;DHT22;9495;51.210;2.934;2024-02-23T08:31:41;15.20;99.90
18733;DHT22;9495;51.210;2.934;2024-02-23T08:34:10;15.20;99.90
18733;DHT22;9495;51.210;2.934;2024-02-23T08:36:39;15.40;99.90
18733;DHT22;9495;51.210;2.934;2024-02-23T08:39:08;15.00;99.90
18733;DHT22;9495;51.210;2.934;2024-02-23T08:41:38;15.20;99.90
18733;DHT22;9495;51.210;2.934;2024-02-23T08:44:07;14.60;99.90
18733;DHT22;9495;51.210;2.934;2024-02-23T08:46:35;14.40;99.90
18733;DHT22;9495;51.210;2.934;2024-02-23T08:49:06;15.40;99.90
18733;DHT22;9495;51.210;2.934;2024-02-23T08:51:35;15.20;99.90
18733;DHT22;9495;51.210;2.934;2024-02-23T08:54:03;15.50;99.90
18733;DHT22;9495;51.210;2.934;2024-02-23T08:56:38;16.20;99.90
18733;DHT22;9495;51.210;2.934;2024-02-23T08:59:09;16.00;99.90
18733;DHT22;9495;51.210;2.934;2024-02-23T09:01:38;16.00;99.90
18733;DHT22;9495;51.210;2.934;2024-02-23T09:04:06;16.50;99.90
18733;DHT22;9495;51.210;2.934;2024-02-23T09:06:35;15.20;99.90
18733;DHT22;9495;51.210;2.934;2024-02-23T09:09:06;16.40;99.90
18733;DHT22;9495;51.210;2.934;2024-02-23T09:11:35;14.60;99.90
18733;DHT22;9495;51.210;2.934;2024-02-23T09:14:06;14.30;99.90
18733;DHT22;9495;51.210;2.934;2024-02-23T09:16:36;14.70;99.90
18733;DHT22;9495;51.210;2.934;2024-02-23T09:19:05;14.80;99.90
18733;DHT22;9495;51.210;2.934;2024-02-23T09:21:33;15.20;99.90
18733;DHT22;9495;51.210;2.934;2024-02-23T09:24:04;14.30;99.90
18733;DHT22;9495;51.210;2.934;2024-02-23T09:26:32;15.90;99.90
18733;DHT22;9495;51.210;2.934;2024-02-23T09:29:01;15.90;99.90
18733;DHT22;9495;51.210;2.934;2024-02-23T09:31:31;15.90;99.90
18733;DHT22;9495;51.210;2.934;2024-02-23T09:34:00;15.40;99.90
18733;DHT22;9495;51.210;2.934;2024-02-23T09:36:29;16.60;99.90
18733;DHT22;9495;51.210;2.934;2024-02-23T09:38:58;16.20;99.90
18733;DHT22;9495;51.210;2.934;2024-02-23T09:41:28;16.10;99.90
18733;DHT22;9495;51.210;2.934;2024-02-23T09:43:58;16.90;99.90
18733;DHT22;9495;51.210;2.934;2024-02-23T09:46:27;16.90;99.90
18733;DHT22;9495;51.210;2.934;2024-02-23T09:48:57;16.70;99.90
18733;DHT22;9495;51.210;2.934;2024-02-23T09:51:26;16.40;99.90
18733;DHT22;9495;51.210;2.934;2024-02-23T09:53:55;16.90;99.90
18733;DHT22;9495;51.210;2.934;2024-02-23T09:56:27;16.50;99.90
18733;DHT22;9495;51.210;2.934;2024-02-23T09:59:00;16.60;99.90
18733;DHT22;9495;51.210;2.934;2024-02-23T10:01:30;16.20;99.90
18733;DHT22;9495;51.210;2.934;2024-02-23T10:04:01;16.90;99.90
18733;DHT22;9495;51.210;2.934;2024-02-23T10:06:32;16.50;99.90
18733;DHT22;9495;51.210;2.934;2024-02-23T10:09:01;16.50;99.90
18733;DHT22;9495;51.210;2.934;2024-02-23T10:11:31;16.20;99.90
18733;DHT22;9495;51.210;2.934;2024-02-23T10:14:00;16.90;99.90
18733;DHT22;9495;51.210;2.934;2024-02-23T10:16:29;16.90;99.90
18733;DHT22;9495;51.210;2.934;2024-02-23T10:18:57;16.80;99.90
18733;DHT22;9495;51.210;2.934;2024-02-23T10:21:27;17.00;99.90
18733;DHT22;9495;51.210;2.934;2024-02-23T10:23:56;17.10;99.90
18733;DHT22;9495;51.210;2.934;2024-02-23T10:26:24;17.10;99.90
18733;DHT22;9495;51.210;2.934;2024-02-23T10:28:55;17.00;99.90
18733;DHT22;9495;51.210;2.934;2024-02-23T10:31:25;17.30;99.90
18733;DHT22;9495;51.210;2.934;2024-02-23T10:33:54;17.10;99.90
18733;DHT22;9495;51.210;2.934;2024-02-23T10:36:29;17.20;99.90
18733;DHT22;9495;51.210;2.934;2024-02-23T10:39:02;17.40;99.90
18733;DHT22;9495;51.210;2.934;2024-02-23T10:41:34;17.40;99.90
18733;DHT22;9495;51.210;2.934;2024-02-23T10:44:03;17.30;99.90
18733;DHT22;9495;51.210;2.934;2024-02-23T10:46:33;17.40;99.90
18733;DHT22;9495;51.210;2.934;2024-02-23T10:49:01;17.40;99.90
18733;DHT22;9495;51.210;2.934;2024-02-23T10:51:33;17.50;99.90
18733;DHT22;9495;51.210;2.934;2024-02-23T10:54:03;17.20;99.90
18733;DHT22;9495;51.210;2.934;2024-02-23T10:56:31;17.20;99.90
18733;DHT22;9495;51.210;2.934;2024-02-23T10:59:00;17.30;99.90
18733;DHT22;9495;51.210;2.934;2024-02-23T11:01:29;17.60;99.90
18733;DHT22;9495;51.210;2.934;2024-02-23T11:03:58;18.10;99.90
18733;DHT22;9495;51.210;2.934;2024-02-23T11:06:28;18.20;99.90
18733;DHT22;9495;51.210;2.934;2024-02-23T11:09:06;18.50;99.90
18733;DHT22;9495;51.210;2.934;2024-02-23T11:11:37;18.40;99.90
18733;DHT22;9495;51.210;2.934;2024-02-23T11:14:07;16.70;99.90
18733;DHT22;9495;51.210;2.934;2024-02-23T11:16:39;14.40;99.90
18733;DHT22;9495;51.210;2.934;2024-02-23T11:19:09;13.60;99.90
18733;DHT22;9495;51.210;2.934;2024-02-23T11:21:39;12.50;99.90
18733;DHT22;9495;51.210;2.934;2024-02-23T11:24:15;12.50;99.90
18733;DHT22;9495;51.210;2.934;2024-02-23T11:26:44;11.80;99.90
18733;DHT22;9495;51.210;2.934;2024-02-23T11:29:16;11.60;99.90
18733;DHT22;9495;51.210;2.934;2024-02-23T11:31:47;12.60;99.90
18733;DHT22;9495;51.210;2.934;2024-02-23T11:34:22;12.40;99.90
18733;DHT22;9495;51.210;2.934;2024-02-23T11:36:51;11.90;99.90
18733;DHT22;9495;51.210;2.934;2024-02-23T11:39:22;12.90;99.90
18733;DHT22;9495;51.210;2.934;2024-02-23T11:41:50;15.40;99.90
18733;DHT22;9495;51.210;2.934;2024-02-23T11:44:19;15.80;99.90
18733;DHT22;9495;51.210;2.934;2024-02-23T11:46:48;16.30;99.90
18733;DHT22;9495;51.210;2.934;2024-02-23T11:49:16;15.90;99.90
18733;DHT22;9495;51.210;2.934;2024-02-23T11:51:45;16.50;99.90
18733;DHT22;9495;51.210;2.934;2024-02-23T11:54:13;16.00;99.90
18733;DHT22;9495;51.210;2.934;2024-02-23T11:56:44;16.50;99.90
18733;DHT22;9495;51.210;2.934;2024-02-23T11:59:13;16.30;99.90
18733;DHT22;9495;51.210;2.934;2024-02-23T12:01:42;16.30;99.90
18733;DHT22;9495;51.210;2.934;2024-02-23T12:04:11;16.50;99.90
18733;DHT22;9495;51.210;2.934;2024-02-23T12:06:40;16.60;99.90
18733;DHT22;9495;51.210;2.934;2024-02-23T12:09:09;17.10;99.90
18733;DHT22;9495;51.210;2.934;2024-02-23T12:11:38;16.60;99.90
18733;DHT22;9495;51.210;2.934;2024-02-23T12:14:08;16.70;99.90
18733;DHT22;9495;51.210;2.934;2024-02-23T12:16:37;17.20;99.90
18733;DHT22;9495;51.210;2.934;2024-02-23T12:19:08;16.30;99.90
18733;DHT22;9495;51.210;2.934;2024-02-23T12:21:37;16.60;99.90
18733;DHT22;9495;51.210;2.934;2024-02-23T12:24:06;16.70;99.90
18733;DHT22;9495;51.210;2.934;2024-02-23T12:26:35;16.00;99.90
18733;DHT22;9495;51.210;2.934;2024-02-23T12:29:05;15.70;99.90
18733;DHT22;9495;51.210;2.934;2024-02-23T12:31:34;15.40;99.90
18733;DHT22;9495;51.210;2.934;2024-02-23T12:34:03;16.40;99.90
18733;DHT22;9495;51.210;2.934;2024-02-23T12:36:35;15.70;99.90
18733;DHT22;9495;51.210;2.934;2024-02-23T12:39:04;16.10;99.90
18733;DHT22;9495;51.210;2.934;2024-02-23T12:41:32;16.40;99.90
18733;DHT22;9495;51.210;2.934;2024-02-23T12:44:01;17.00;99.90
18733;DHT22;9495;51.210;2.934;2024-02-23T12:46:30;16.30;99.90
18733;DHT22;9495;51.210;2.934;2024-02-23T12:48:59;16.90;99.90
18733;DHT22;9495;51.210;2.934;2024-02-23T12:51:28;17.00;99.90
18733;DHT22;9495;51.210;2.934;2024-02-23T12:53:57;16.20;99.90
18733;DHT22;9495;51.210;2.934;2024-02-23T12:56:25;16.20;99.90
18733;DHT22;9495;51.210;2.934;2024-02-23T12:58:54;16.80;99.90
18733;DHT22;9495;51.210;2.934;2024-02-23T13:01:23;16.50;99.90
18733;DHT22;9495;51.210;2.934;2024-02-23T13:03:52;16.30;99.90
18733;DHT22;9495;51.210;2.934;2024-02-23T13:06:22;16.70;99.90
18733;DHT22;9495;51.210;2.934;2024-02-23T13:08:50;16.80;99.90
18733;DHT22;9495;51.210;2.934;2024-02-23T13:11:20;16.70;99.90
18733;DHT22;9495;51.210;2.934;2024-02-23T13:13:48;16.60;99.90
18733;DHT22;9495;51.210;2.934;2024-02-23T13:16:17;15.80;99.90
18733;DHT22;9495;51.210;2.934;2024-02-23T13:18:46;15.50;99.90
18733;DHT22;9495;51.210;2.934;2024-02-23T13:21:15;16.00;99.90
18733;DHT22;9495;51.210;2.934;2024-02-23T13:23:45;15.00;99.90
18733;DHT22;9495;51.210;2.934;2024-02-23T13:26:13;14.70;99.90
18733;DHT22;9495;51.210;2.934;2024-02-23T13:28:42;16.00;99.90
18733;DHT22;9495;51.210;2.934;2024-02-23T13:31:12;15.30;99.90
18733;DHT22;9495;51.210;2.934;2024-02-23T13:33:42;15.20;99.90
18733;DHT22;9495;51.210;2.934;2024-02-23T13:36:12;15.00;99.90
18733;DHT22;9495;51.210;2.934;2024-02-23T13:38:41;14.10;99.90
18733;DHT22;9495;51.210;2.934;2024-02-23T13:41:11;14.30;99.90
18733;DHT22;9495;51.210;2.934;2024-02-23T13:43:39;14.50;99.90
18733;DHT22;9495;51.210;2.934;2024-02-23T13:46:08;14.10;99.90
18733;DHT22;9495;51.210;2.934;2024-02-23T13:48:37;14.90;99.90
18733;DHT22;9495;51.210;2.934;2024-02-23T13:51:05;13.90;99.90
18733;DHT22;9495;51.210;2.934;2024-02-23T13:53:34;12.90;99.90
18733;DHT22;9495;51.210;2.934;2024-02-23T13:56:04;13.10;99.90
18733;DHT22;9495;51.210;2.934;2024-02-23T13:58:34;13.30;99.90
18733;DHT22;9495;51.210;2.934;2024-02-23T14:01:03;13.10;99.90
18733;DHT22;9495;51.210;2.934;2024-02-23T14:03:32;12.70;99.90
18733;DHT22;9495;51.210;2.934;2024-02-23T14:06:00;12.40;99.90
18733;DHT22;9495;51.210;2.934;2024-02-23T14:08:29;13.40;99.90
18733;DHT22;9495;51.210;2.934;2024-02-23T14:11:01;14.10;99.90
18733;DHT22;9495;51.210;2.934;2024-02-23T14:13:30;13.40;99.90
18733;DHT22;9495;51.210;2.934;2024-02-23T14:16:00;12.90;99.90
18733;DHT22;9495;51.210;2.934;2024-02-23T14:18:31;13.20;99.90
18733;DHT22;9495;51.210;2.934;2024-02-23T14:21:04;12.70;99.90
18733;DHT22;9495;51.210;2.934;2024-02-23T14:23:33;13.30;99.90
18733;DHT22;9495;51.210;2.934;2024-02-23T14:26:02;12.90;99.90
18733;DHT22;9495;51.210;2.934;2024-02-23T14:28:30;13.10;99.90
18733;DHT22;9495;51.210;2.934;2024-02-23T14:31:00;14.20;99.90
18733;DHT22;9495;51.210;2.934;2024-02-23T14:33:29;13.70;99.90
18733;DHT22;9495;51.210;2.934;2024-02-23T14:35:58;14.20;99.90
18733;DHT22;9495;51.210;2.934;2024-02-23T14:38:26;14.20;99.90
18733;DHT22;9495;51.210;2.934;2024-02-23T14:40:55;14.60;99.90
18733;DHT22;9495;51.210;2.934;2024-02-23T14:43:24;15.50;99.90
18733;DHT22;9495;51.210;2.934;2024-02-23T14:45:52;15.70;99.90
18733;DHT22;9495;51.210;2.934;2024-02-23T14:48:22;15.90;99.90
18733;DHT22;9495;51.210;2.934;2024-02-23T14:50:51;15.80;99.90
18733;DHT22;9495;51.210;2.934;2024-02-23T14:53:20;14.80;99.90
18733;DHT22;9495;51.210;2.934;2024-02-23T14:55:49;14.30;99.90
18733;DHT22;9495;51.210;2.934;2024-02-23T14:58:18;13.50;99.90
18733;DHT22;9495;51.210;2.934;2024-02-23T15:00:46;11.80;99.90
18733;DHT22;9495;51.210;2.934;2024-02-23T15:03:15;10.60;99.90
18733;DHT22;9495;51.210;2.934;2024-02-23T15:05:45;10.10;99.90
18733;DHT22;9495;51.210;2.934;2024-02-23T15:08:14;9.90;99.90
18733;DHT22;9495;51.210;2.934;2024-02-23T15:10:42;10.10;99.90
18733;DHT22;9495;51.210;2.934;2024-02-23T15:13:11;9.80;99.90
18733;DHT22;9495;51.210;2.934;2024-02-23T15:15:39;9.80;99.90
18733;DHT22;9495;51.210;2.934;2024-02-23T15:18:09;9.50;99.90
18733;DHT22;9495;51.210;2.934;2024-02-23T15:20:38;9.70;99.90
18733;DHT22;9495;51.210;2.934;2024-02-23T15:23:08;9.60;99.90
18733;DHT22;9495;51.210;2.934;2024-02-23T15:25:36;9.20;99.90
18733;DHT22;9495;51.210;2.934;2024-02-23T15:28:11;9.40;99.90
18733;DHT22;9495;51.210;2.934;2024-02-23T15:30:40;9.40;99.90
18733;DHT22;9495;51.210;2.934;2024-02-23T15:33:09;9.80;99.90
18733;DHT22;9495;51.210;2.934;2024-02-23T15:35:38;9.90;99.90
18733;DHT22;9495;51.210;2.934;2024-02-23T15:38:08;9.80;99.90
18733;DHT22;9495;51.210;2.934;2024-02-23T15:40:36;9.50;99.90
18733;DHT22;9495;51.210;2.934;2024-02-23T15:43:05;9.60;99.90
18733;DHT22;9495;51.210;2.934;2024-02-23T15:45:33;9.40;99.90
18733;DHT22;9495;51.210;2.934;2024-02-23T15:48:02;9.40;99.90
18733;DHT22;9495;51.210;2.934;2024-02-23T15:50:30;9.40;99.90
18733;DHT22;9495;51.210;2.934;2024-02-23T15:53:20;9.40;99.90
18733;DHT22;9495;51.210;2.934;2024-02-23T15:55:49;9.80;99.90
18733;DHT22;9495;51.210;2.934;2024-02-23T15:58:18;9.70;99.90
18733;DHT22;9495;51.210;2.934;2024-02-23T16:00:47;9.70;99.90